createdAt,value
2022-08-03T00:00:21.305Z,0.00
2022-08-03T00:01:21.295Z,0.00
2022-08-03T00:02:21.277Z,0.00
2022-08-03T00:03:21.354Z,0.00
2022-08-03T00:04:21.247Z,0.00
2022-08-03T00:05:22.259Z,0.00
2022-08-03T00:06:21.226Z,0.00
2022-08-03T00:07:21.214Z,0.00
2022-08-03T00:08:21.196Z,0.00
2022-08-03T00:09:21.184Z,0.00
2022-08-03T00:10:21.172Z,0.00
2022-08-03T00:11:21.157Z,0.00
2022-08-03T00:12:21.153Z,0.00
2022-08-03T00:13:21.137Z,0.00
2022-08-03T00:14:21.124Z,0.00
2022-08-03T00:15:21.116Z,0.00
2022-08-03T00:16:21.093Z,0.00
2022-08-03T00:17:21.083Z,0.00
2022-08-03T00:18:21.062Z,0.00
2022-08-03T00:19:21.055Z,0.00
2022-08-03T00:20:21.036Z,0.00
2022-08-03T00:21:21.028Z,0.00
2022-08-03T00:22:21.006Z,0.00
2022-08-03T00:23:20.998Z,0.00
2022-08-03T00:24:20.986Z,0.00
2022-08-03T00:25:20.971Z,0.00
2022-08-03T00:26:20.982Z,0.00
2022-08-03T00:27:20.943Z,0.00
2022-08-03T00:28:20.931Z,0.00
2022-08-03T00:29:20.917Z,0.00
2022-08-03T00:30:20.906Z,0.00
2022-08-03T00:31:39.714Z,0.00
2022-08-03T00:32:20.878Z,0.00
2022-08-03T00:33:20.866Z,0.00
2022-08-03T00:34:29.855Z,0.00
2022-08-03T00:35:33.451Z,0.00
2022-08-03T00:36:20.823Z,0.00
2022-08-03T00:37:20.818Z,0.00
2022-08-03T00:38:20.799Z,0.00
2022-08-03T00:39:20.790Z,0.00
2022-08-03T00:40:20.764Z,0.00
2022-08-03T00:41:20.758Z,0.00
2022-08-03T00:42:20.747Z,0.00
2022-08-03T00:43:20.730Z,0.00
2022-08-03T00:44:20.707Z,0.00
2022-08-03T00:45:20.699Z,0.00
2022-08-03T00:46:21.978Z,0.00
2022-08-03T00:47:20.674Z,0.00
2022-08-03T00:48:33.130Z,0.00
2022-08-03T00:49:21.708Z,0.00
2022-08-03T00:50:20.633Z,0.00
2022-08-03T00:51:20.830Z,0.00
2022-08-03T00:52:20.763Z,0.00
2022-08-03T00:53:20.596Z,0.00
2022-08-03T00:54:20.584Z,0.00
2022-08-03T00:55:20.567Z,0.00
2022-08-03T00:56:20.552Z,0.00
2022-08-03T00:57:20.542Z,0.00
2022-08-03T00:58:20.525Z,0.00
2022-08-03T00:59:20.513Z,0.00
2022-08-03T01:00:20.497Z,0.00
2022-08-03T01:01:20.550Z,0.00
2022-08-03T01:02:20.468Z,0.00
2022-08-03T01:03:20.455Z,0.00
2022-08-03T01:04:20.443Z,0.00
2022-08-03T01:05:20.435Z,0.00
2022-08-03T01:06:20.422Z,0.00
2022-08-03T01:07:20.415Z,0.00
2022-08-03T01:08:20.387Z,0.00
2022-08-03T01:09:20.374Z,0.00
2022-08-03T01:10:20.360Z,0.00
2022-08-03T01:11:20.348Z,0.00
2022-08-03T01:12:20.333Z,0.00
2022-08-03T01:14:01.334Z,0.00
2022-08-03T01:14:20.305Z,0.00
2022-08-03T01:15:20.293Z,0.00
2022-08-03T01:16:20.283Z,0.00
2022-08-03T01:17:20.270Z,0.00
2022-08-03T01:18:20.257Z,0.00
2022-08-03T01:19:20.255Z,0.00
2022-08-03T01:20:20.227Z,0.00
2022-08-03T01:21:20.221Z,0.00
2022-08-03T01:22:20.199Z,0.00
2022-08-03T01:23:20.191Z,0.00
2022-08-03T01:24:20.175Z,0.00
2022-08-03T01:25:20.162Z,0.00
2022-08-03T01:26:20.146Z,0.00
2022-08-03T01:27:20.131Z,0.00
2022-08-03T01:28:20.115Z,0.00
2022-08-03T01:29:20.105Z,0.00
2022-08-03T01:30:20.091Z,0.00
2022-08-03T01:31:20.076Z,0.00
2022-08-03T01:32:59.363Z,0.00
2022-08-03T01:33:20.051Z,0.00
2022-08-03T01:34:20.038Z,0.00
2022-08-03T01:35:20.030Z,0.00
2022-08-03T01:36:20.013Z,0.00
2022-08-03T01:37:19.993Z,0.00
2022-08-03T01:38:19.985Z,0.00
2022-08-03T01:39:19.971Z,0.00
2022-08-03T01:40:19.956Z,0.00
2022-08-03T01:41:19.968Z,0.00
2022-08-03T01:42:19.923Z,0.00
2022-08-03T01:44:26.862Z,0.00
2022-08-03T01:44:29.942Z,0.00
2022-08-03T01:45:19.897Z,0.00
2022-08-03T01:46:19.878Z,0.00
2022-08-03T01:47:19.867Z,0.00
2022-08-03T01:48:19.842Z,0.00
2022-08-03T01:49:19.940Z,0.00
2022-08-03T01:50:19.817Z,0.00
2022-08-03T01:51:19.812Z,0.00
2022-08-03T01:52:20.155Z,0.00
2022-08-03T01:53:19.788Z,0.00
2022-08-03T01:54:19.766Z,0.00
2022-08-03T01:55:19.758Z,0.00
2022-08-03T01:56:19.743Z,0.00
2022-08-03T01:57:19.731Z,0.00
2022-08-03T01:58:19.720Z,0.00
2022-08-03T01:59:19.705Z,0.00
2022-08-03T02:00:19.718Z,0.00
2022-08-03T02:01:19.790Z,0.00
2022-08-03T02:02:33.179Z,0.00
2022-08-03T02:03:19.649Z,0.00
2022-08-03T02:04:19.637Z,0.00
2022-08-03T02:05:19.617Z,0.00
2022-08-03T02:07:00.281Z,0.00
2022-08-03T02:07:19.605Z,0.00
2022-08-03T02:08:19.573Z,0.00
2022-08-03T02:09:19.567Z,0.00
2022-08-03T02:10:23.068Z,0.00
2022-08-03T02:11:20.559Z,0.00
2022-08-03T02:12:19.541Z,0.00
2022-08-03T02:13:19.513Z,0.00
2022-08-03T02:14:19.503Z,0.00
2022-08-03T02:15:19.487Z,0.00
2022-08-03T02:16:19.470Z,0.00
2022-08-03T02:17:19.462Z,0.00
2022-08-03T02:18:19.447Z,0.00
2022-08-03T02:19:19.433Z,0.00
2022-08-03T02:20:19.412Z,0.00
2022-08-03T02:21:55.606Z,0.00
2022-08-03T02:22:19.391Z,0.00
2022-08-03T02:23:19.379Z,0.00
2022-08-03T02:24:19.360Z,0.00
2022-08-03T02:25:19.352Z,0.00
2022-08-03T02:26:19.332Z,0.00
2022-08-03T02:27:19.330Z,0.00
2022-08-03T02:28:19.310Z,0.00
2022-08-03T02:29:19.299Z,0.00
2022-08-03T02:30:19.285Z,0.00
2022-08-03T02:31:19.272Z,0.00
2022-08-03T02:32:19.607Z,0.00
2022-08-03T02:33:19.238Z,0.00
2022-08-03T02:34:19.230Z,0.00
2022-08-03T02:35:19.217Z,0.00
2022-08-03T02:36:19.203Z,0.00
2022-08-03T02:37:19.190Z,0.00
2022-08-03T02:38:19.176Z,0.00
2022-08-03T02:39:19.157Z,0.00
2022-08-03T02:40:19.141Z,0.00
2022-08-03T02:41:19.138Z,0.00
2022-08-03T02:42:19.391Z,0.00
2022-08-03T02:43:19.114Z,0.00
2022-08-03T02:44:19.096Z,0.00
2022-08-03T02:45:19.083Z,0.00
2022-08-03T02:46:19.069Z,0.00
2022-08-03T02:47:19.054Z,0.00
2022-08-03T02:48:19.036Z,0.00
2022-08-03T02:49:40.623Z,0.00
2022-08-03T02:50:20.083Z,0.00
2022-08-03T02:51:18.996Z,0.00
2022-08-03T02:52:19.215Z,0.00
2022-08-03T02:53:18.969Z,0.00
2022-08-03T02:54:18.964Z,0.00
2022-08-03T02:55:18.946Z,0.00
2022-08-03T02:56:18.935Z,0.00
2022-08-03T02:57:18.917Z,0.00
2022-08-03T02:58:18.913Z,0.00
2022-08-03T02:59:18.889Z,0.00
2022-08-03T03:00:27.610Z,0.00
2022-08-03T03:01:19.945Z,0.00
2022-08-03T03:02:19.135Z,0.00
2022-08-03T03:03:18.834Z,0.00
2022-08-03T03:04:18.827Z,0.00
2022-08-03T03:05:56.453Z,0.00
2022-08-03T03:06:18.805Z,0.00
2022-08-03T03:07:18.782Z,0.00
2022-08-03T03:08:26.201Z,0.00
2022-08-03T03:09:19.777Z,0.00
2022-08-03T03:10:18.745Z,0.00
2022-08-03T03:11:18.719Z,0.00
2022-08-03T03:12:18.715Z,0.00
2022-08-03T03:13:18.703Z,0.00
2022-08-03T03:14:18.689Z,0.00
2022-08-03T03:15:18.671Z,0.00
2022-08-03T03:16:18.663Z,0.00
2022-08-03T03:17:18.648Z,0.00
2022-08-03T03:18:22.261Z,0.00
2022-08-03T03:19:18.636Z,0.00
2022-08-03T03:20:29.632Z,0.00
2022-08-03T03:21:18.587Z,0.00
2022-08-03T03:22:18.670Z,0.00
2022-08-03T03:23:18.558Z,0.00
2022-08-03T03:24:18.558Z,0.00
2022-08-03T03:25:18.533Z,0.00
2022-08-03T03:26:18.523Z,0.00
2022-08-03T03:27:18.508Z,0.00
2022-08-03T03:28:18.497Z,0.00
2022-08-03T03:29:18.482Z,0.00
2022-08-03T03:30:18.474Z,4.00
2022-08-03T03:31:18.451Z,4.00
2022-08-03T03:32:18.437Z,0.00
2022-08-03T03:33:18.425Z,4.00
2022-08-03T03:34:18.410Z,4.00
2022-08-03T03:35:18.392Z,4.00
2022-08-03T03:36:18.382Z,4.00
2022-08-03T03:37:18.366Z,4.00
2022-08-03T03:38:18.360Z,4.00
2022-08-03T03:39:18.342Z,8.00
2022-08-03T03:40:18.334Z,8.00
2022-08-03T03:41:18.317Z,12.00
2022-08-03T03:42:18.308Z,16.00
2022-08-03T03:43:18.292Z,16.00
2022-08-03T03:44:18.274Z,20.00
2022-08-03T03:45:18.263Z,20.00
2022-08-03T03:46:18.249Z,24.00
2022-08-03T03:47:18.234Z,28.00
2022-08-03T03:48:18.219Z,32.00
2022-08-03T03:49:18.233Z,36.00
2022-08-03T03:50:18.187Z,44.00
2022-08-03T03:51:18.175Z,48.00
2022-08-03T03:52:18.297Z,56.00
2022-08-03T03:53:18.148Z,64.00
2022-08-03T03:54:18.134Z,68.00
2022-08-03T03:55:18.123Z,76.00
2022-08-03T03:56:18.110Z,84.00
2022-08-03T03:57:18.304Z,96.00
2022-08-03T03:58:18.087Z,104.00
2022-08-03T03:59:18.076Z,116.00
2022-08-03T04:00:18.056Z,128.00
2022-08-03T04:01:18.124Z,136.00
2022-08-03T04:02:18.250Z,148.00
2022-08-03T04:03:18.017Z,160.00
2022-08-03T04:04:17.998Z,176.00
2022-08-03T04:05:17.987Z,188.00
2022-08-03T04:06:17.984Z,200.00
2022-08-03T04:07:17.958Z,216.00
2022-08-03T04:08:17.943Z,232.00
2022-08-03T04:09:17.930Z,248.00
2022-08-03T04:10:17.918Z,264.00
2022-08-03T04:11:17.907Z,280.00
2022-08-03T04:12:17.983Z,296.00
2022-08-03T04:13:17.885Z,316.00
2022-08-03T04:14:17.862Z,332.00
2022-08-03T04:15:17.857Z,348.00
2022-08-03T04:16:17.840Z,364.00
2022-08-03T04:17:17.829Z,384.00
2022-08-03T04:18:17.809Z,404.00
2022-08-03T04:19:22.754Z,416.00
2022-08-03T04:20:17.778Z,436.00
2022-08-03T04:21:17.772Z,456.00
2022-08-03T04:22:18.085Z,476.00
2022-08-03T04:23:17.741Z,496.00
2022-08-03T04:24:17.733Z,512.00
2022-08-03T04:25:17.718Z,532.00
2022-08-03T04:26:17.701Z,548.00
2022-08-03T04:27:17.691Z,568.00
2022-08-03T04:28:30.450Z,584.00
2022-08-03T04:29:17.662Z,600.00
2022-08-03T04:30:17.641Z,620.00
2022-08-03T04:31:17.634Z,640.00
2022-08-03T04:32:18.111Z,660.00
2022-08-03T04:33:17.606Z,676.00
2022-08-03T04:34:17.593Z,696.00
2022-08-03T04:35:17.580Z,712.00
2022-08-03T04:36:17.566Z,728.00
2022-08-03T04:37:17.555Z,752.00
2022-08-03T04:38:17.535Z,780.00
2022-08-03T04:39:17.527Z,808.00
2022-08-03T04:40:17.514Z,832.00
2022-08-03T04:41:17.497Z,852.00
2022-08-03T04:42:17.567Z,876.00
2022-08-03T04:43:17.467Z,900.00
2022-08-03T04:44:17.452Z,916.00
2022-08-03T04:45:17.438Z,940.00
2022-08-03T04:46:17.424Z,956.00
2022-08-03T04:47:17.421Z,972.00
2022-08-03T04:48:17.396Z,996.00
2022-08-03T04:49:17.440Z,1016.00
2022-08-03T04:50:21.357Z,1032.00
2022-08-03T04:51:17.368Z,1032.00
2022-08-03T04:52:17.729Z,1052.00
2022-08-03T04:53:17.343Z,1068.00
2022-08-03T04:54:17.318Z,1084.00
2022-08-03T04:55:17.314Z,1096.00
2022-08-03T04:56:17.295Z,1112.00
2022-08-03T04:57:21.962Z,1128.00
2022-08-03T04:58:17.271Z,1140.00
2022-08-03T04:59:17.259Z,1156.00
2022-08-03T05:00:17.236Z,1172.00
2022-08-03T05:01:17.266Z,1192.00
2022-08-03T05:02:17.549Z,1188.00
2022-08-03T05:03:20.127Z,1200.00
2022-08-03T05:04:18.201Z,1212.00
2022-08-03T05:05:17.188Z,1228.00
2022-08-03T05:06:17.179Z,1244.00
2022-08-03T05:07:19.510Z,1260.00
2022-08-03T05:08:17.131Z,1276.00
2022-08-03T05:09:49.886Z,1304.00
2022-08-03T05:10:17.114Z,1328.00
2022-08-03T05:11:17.097Z,1364.00
2022-08-03T05:12:17.377Z,1392.00
2022-08-03T05:13:17.062Z,1420.00
2022-08-03T05:14:17.056Z,1452.00
2022-08-03T05:15:17.038Z,1488.00
2022-08-03T05:16:17.012Z,1520.00
2022-08-03T05:17:17.003Z,1544.00
2022-08-03T05:18:16.989Z,1560.00
2022-08-03T05:19:16.977Z,1584.00
2022-08-03T05:20:18.858Z,1608.00
2022-08-03T05:21:17.010Z,1624.00
2022-08-03T05:22:17.229Z,1648.00
2022-08-03T05:23:16.935Z,1672.00
2022-08-03T05:24:16.911Z,1696.00
2022-08-03T05:25:19.160Z,1704.00
2022-08-03T05:26:16.883Z,1732.00
2022-08-03T05:27:16.878Z,1744.00
2022-08-03T05:28:16.886Z,1756.00
2022-08-03T05:29:16.851Z,1780.00
2022-08-03T05:30:29.744Z,1804.00
2022-08-03T05:31:16.821Z,1840.00
2022-08-03T05:32:16.906Z,1860.00
2022-08-03T05:33:16.799Z,1880.00
2022-08-03T05:34:16.779Z,1900.00
2022-08-03T05:35:57.500Z,1916.00
2022-08-03T05:36:16.744Z,1928.00
2022-08-03T05:37:16.740Z,1936.00
2022-08-03T05:38:24.092Z,1956.00
2022-08-03T05:39:16.706Z,1980.00
2022-08-03T05:40:16.719Z,2004.00
2022-08-03T05:41:21.891Z,2024.00
2022-08-03T05:42:16.976Z,2052.00
2022-08-03T05:43:16.692Z,2076.00
2022-08-03T05:44:16.641Z,2104.00
2022-08-03T05:45:16.648Z,2136.00
2022-08-03T05:46:16.617Z,2176.00
2022-08-03T05:47:16.596Z,2212.00
2022-08-03T05:48:16.602Z,2228.00
2022-08-03T05:49:16.814Z,2244.00
2022-08-03T05:50:16.560Z,2268.00
2022-08-03T05:51:16.564Z,2304.00
2022-08-03T05:52:17.139Z,2332.00
2022-08-03T05:53:16.553Z,2360.00
2022-08-03T05:54:16.506Z,2384.00
2022-08-03T05:55:16.498Z,2424.00
2022-08-03T05:56:17.013Z,2472.00
2022-08-03T05:57:16.461Z,2288.00
2022-08-03T05:58:16.473Z,2356.00
2022-08-03T05:59:37.162Z,2568.00
2022-08-03T06:00:16.446Z,2616.00
2022-08-03T06:01:16.498Z,2432.00
2022-08-03T06:02:16.865Z,2580.00
2022-08-03T06:03:16.392Z,2800.00
2022-08-03T06:04:16.387Z,2824.00
2022-08-03T06:05:16.371Z,2832.00
2022-08-03T06:06:16.350Z,2888.00
2022-08-03T06:07:16.337Z,2864.00
2022-08-03T06:08:16.323Z,2936.00
2022-08-03T06:09:16.310Z,3004.00
2022-08-03T06:10:34.880Z,3044.00
2022-08-03T06:11:16.299Z,3036.00
2022-08-03T06:12:16.662Z,2904.00
2022-08-03T06:13:16.262Z,2972.00
2022-08-03T06:14:16.238Z,3212.00
2022-08-03T06:15:16.221Z,3280.00
2022-08-03T06:16:16.210Z,3384.00
2022-08-03T06:17:16.197Z,3436.00
2022-08-03T06:18:16.182Z,3492.00
2022-08-03T06:19:16.172Z,3576.00
2022-08-03T06:20:16.158Z,3532.00
2022-08-03T06:21:16.369Z,3684.00
2022-08-03T06:22:16.462Z,3748.00
2022-08-03T06:23:18.088Z,3728.00
2022-08-03T06:24:16.097Z,3724.00
2022-08-03T06:25:16.083Z,3780.00
2022-08-03T06:26:16.074Z,3420.00
2022-08-03T06:27:16.063Z,3424.00
2022-08-03T06:29:16.038Z,3624.00
2022-08-03T06:30:19.339Z,3792.00
2022-08-03T06:31:16.011Z,3792.00
2022-08-03T06:32:16.002Z,3896.00
2022-08-03T06:33:15.994Z,4240.00
2022-08-03T06:34:32.324Z,4408.00
2022-08-03T06:35:15.957Z,5184.00
2022-08-03T06:36:15.950Z,9064.00
2022-08-03T06:37:15.976Z,12644.00
2022-08-03T06:38:15.926Z,9812.00
2022-08-03T06:39:15.910Z,8352.00
2022-08-03T06:40:15.883Z,10832.00
2022-08-03T06:41:15.874Z,13804.00
2022-08-03T06:42:16.173Z,13276.00
2022-08-03T06:43:16.064Z,12204.00
2022-08-03T06:44:15.840Z,14144.00
2022-08-03T06:45:15.829Z,21472.00
2022-08-03T06:46:15.814Z,17952.00
2022-08-03T06:47:15.802Z,11164.00
2022-08-03T06:48:15.790Z,14048.00
2022-08-03T06:49:15.833Z,19744.00
2022-08-03T06:50:17.870Z,23520.00
2022-08-03T06:51:15.744Z,24256.00
2022-08-03T06:52:38.170Z,24352.00
2022-08-03T06:53:19.246Z,25280.00
2022-08-03T06:54:15.701Z,20928.00
2022-08-03T06:55:15.703Z,12020.00
2022-08-03T06:56:15.675Z,10584.00
2022-08-03T06:57:15.664Z,15136.00
2022-08-03T06:58:15.650Z,17760.00
2022-08-03T07:00:10.829Z,22784.00
2022-08-03T07:00:15.619Z,29312.00
2022-08-03T07:01:15.679Z,29504.00
2022-08-03T07:02:18.278Z,26688.00
2022-08-03T07:03:15.586Z,14784.00
2022-08-03T07:04:15.575Z,5320.00
2022-08-03T07:05:15.558Z,3804.00
2022-08-03T07:06:15.553Z,3596.00
2022-08-03T07:07:15.533Z,3592.00
2022-08-03T07:08:15.517Z,3596.00
2022-08-03T07:09:15.505Z,3664.00
2022-08-03T07:10:15.492Z,3764.00
2022-08-03T07:11:15.478Z,3816.00
2022-08-03T07:12:15.688Z,3752.00
2022-08-03T07:13:15.475Z,3644.00
2022-08-03T07:14:15.443Z,3572.00
2022-08-03T07:15:20.181Z,3540.00
2022-08-03T07:16:15.433Z,3608.00
2022-08-03T07:17:15.403Z,3748.00
2022-08-03T07:18:15.380Z,3896.00
2022-08-03T07:19:15.385Z,3960.00
2022-08-03T07:20:15.378Z,3908.00
2022-08-03T07:21:15.361Z,3832.00
2022-08-03T07:22:15.490Z,3768.00
2022-08-03T07:23:19.282Z,3732.00
2022-08-03T07:24:15.298Z,3796.00
2022-08-03T07:25:15.287Z,3964.00
2022-08-03T07:26:15.276Z,4092.00
2022-08-03T07:27:15.265Z,4236.00
2022-08-03T07:28:15.252Z,4376.00
2022-08-03T07:29:15.629Z,4120.00
2022-08-03T07:30:15.212Z,3944.00
2022-08-03T07:31:15.219Z,4260.00
2022-08-03T07:32:15.502Z,5424.00
2022-08-03T07:33:15.300Z,6560.00
2022-08-03T07:34:15.174Z,5912.00
2022-08-03T07:35:24.602Z,8600.00
2022-08-03T07:36:15.151Z,16672.00
2022-08-03T07:37:15.134Z,16672.00
2022-08-03T07:38:15.139Z,15680.00
2022-08-03T07:39:17.908Z,11396.00
2022-08-03T07:40:15.103Z,10476.00
2022-08-03T07:41:15.081Z,16480.00
2022-08-03T07:42:15.277Z,18624.00
2022-08-03T07:43:15.052Z,22944.00
2022-08-03T07:44:15.049Z,17408.00
2022-08-03T07:45:16.853Z,32288.00
2022-08-03T07:46:14.998Z,48032.00
2022-08-03T07:47:22.360Z,44384.00
2022-08-03T07:48:14.976Z,49824.00
2022-08-03T07:49:15.070Z,52192.00
2022-08-03T07:50:14.953Z,51840.00
2022-08-03T07:51:14.947Z,52416.00
2022-08-03T07:52:15.163Z,52672.00
2022-08-03T07:53:14.913Z,50752.00
2022-08-03T07:54:14.898Z,51328.00
2022-08-03T07:55:14.890Z,50464.00
2022-08-03T07:56:14.871Z,51392.00
2022-08-03T07:57:14.856Z,53664.00
2022-08-03T07:58:14.847Z,53216.00
2022-08-03T07:59:14.839Z,52128.00
2022-08-03T08:00:14.823Z,52128.00
2022-08-03T08:01:15.170Z,50976.00
2022-08-03T08:02:14.953Z,50752.00
2022-08-03T08:03:14.789Z,51584.00
2022-08-03T08:04:14.775Z,54176.00
2022-08-03T08:05:14.763Z,53888.00
2022-08-03T08:06:14.756Z,54624.00
2022-08-03T08:07:14.782Z,55744.00
2022-08-03T08:08:14.728Z,57120.00
2022-08-03T08:09:14.715Z,56896.00
2022-08-03T08:10:14.705Z,54720.00
2022-08-03T08:11:14.683Z,55552.00
2022-08-03T08:12:15.348Z,55008.00
2022-08-03T08:13:14.684Z,57760.00
2022-08-03T08:14:14.648Z,58528.00
2022-08-03T08:15:14.652Z,58976.00
2022-08-03T08:16:14.624Z,58336.00
2022-08-03T08:17:14.615Z,60480.00
2022-08-03T08:18:14.605Z,60672.00
2022-08-03T08:19:14.586Z,60256.00
2022-08-03T08:20:14.602Z,59296.00
2022-08-03T08:21:14.609Z,58208.00
2022-08-03T08:22:14.644Z,56096.00
2022-08-03T08:23:37.915Z,55424.00
2022-08-03T08:24:18.113Z,57568.00
2022-08-03T08:25:14.513Z,59488.00
2022-08-03T08:26:14.505Z,62496.00
2022-08-03T08:27:14.505Z,64352.00
2022-08-03T08:28:31.517Z,65440.00
2022-08-03T08:29:14.481Z,63968.00
2022-08-03T08:30:17.364Z,64896.00
2022-08-03T08:31:14.432Z,64256.00
2022-08-03T08:32:14.444Z,66112.00
2022-08-03T08:33:23.018Z,64480.00
2022-08-03T08:34:14.410Z,64704.00
2022-08-03T08:35:14.388Z,65120.00
2022-08-03T08:36:15.487Z,61792.00
2022-08-03T08:37:14.372Z,59616.00
2022-08-03T08:38:14.370Z,57408.00
2022-08-03T08:39:14.339Z,61408.00
2022-08-03T08:40:14.353Z,63712.00
2022-08-03T08:41:14.328Z,66112.00
2022-08-03T08:42:14.593Z,68000.00
2022-08-03T08:43:14.300Z,68992.00
2022-08-03T08:44:14.281Z,68480.00
2022-08-03T08:45:14.265Z,68800.00
2022-08-03T08:46:23.383Z,70656.00
2022-08-03T08:47:14.252Z,74112.00
2022-08-03T08:48:14.237Z,74624.00
2022-08-03T08:49:14.298Z,75264.00
2022-08-03T08:50:27.124Z,73536.00
2022-08-03T08:51:14.197Z,72832.00
2022-08-03T08:52:29.529Z,72448.00
2022-08-03T08:53:17.694Z,69792.00
2022-08-03T08:54:14.178Z,65312.00
2022-08-03T08:55:14.160Z,67136.00
2022-08-03T08:56:14.149Z,66208.00
2022-08-03T08:57:33.565Z,68224.00
2022-08-03T08:58:14.137Z,71072.00
2022-08-03T08:59:14.107Z,73504.00
2022-08-03T09:00:14.107Z,73824.00
2022-08-03T09:01:14.147Z,72864.00
2022-08-03T09:02:14.085Z,71200.00
2022-08-03T09:03:14.067Z,69632.00
2022-08-03T09:04:14.069Z,67104.00
2022-08-03T09:05:14.045Z,59904.00
2022-08-03T09:06:14.038Z,63744.00
2022-08-03T09:07:19.675Z,68800.00
2022-08-03T09:08:15.034Z,73216.00
2022-08-03T09:09:28.371Z,74272.00
2022-08-03T09:10:14.110Z,67712.00
2022-08-03T09:11:14.009Z,71904.00
2022-08-03T09:12:38.854Z,66176.00
2022-08-03T09:13:14.984Z,63904.00
2022-08-03T09:14:34.391Z,45760.00
2022-08-03T09:15:17.304Z,16896.00
2022-08-03T09:16:13.919Z,10952.00
2022-08-03T09:17:17.117Z,9500.00
2022-08-03T09:18:13.933Z,8816.00
2022-08-03T09:19:13.890Z,8520.00
2022-08-03T09:20:13.873Z,8372.00
2022-08-03T09:21:30.005Z,8360.00
2022-08-03T09:22:13.866Z,8464.00
2022-08-03T09:23:51.794Z,8672.00
2022-08-03T09:24:31.087Z,9012.00
2022-08-03T09:25:26.869Z,9492.00
2022-08-03T09:26:14.857Z,10280.00
2022-08-03T09:27:13.813Z,11472.00
2022-08-03T09:28:13.794Z,13396.00
2022-08-03T09:29:15.224Z,17920.00
2022-08-03T09:30:33.365Z,41312.00
2022-08-03T09:31:13.749Z,66944.00
2022-08-03T09:32:14.909Z,68736.00
2022-08-03T09:33:13.731Z,73696.00
2022-08-03T09:34:13.730Z,70432.00
2022-08-03T09:35:13.714Z,73056.00
2022-08-03T09:36:13.695Z,73824.00
2022-08-03T09:37:13.772Z,82400.00
2022-08-03T09:38:14.418Z,87104.00
2022-08-03T09:39:13.692Z,84736.00
2022-08-03T09:40:13.667Z,80064.00
2022-08-03T09:41:13.642Z,74720.00
2022-08-03T09:42:14.958Z,70720.00
2022-08-03T09:43:13.623Z,68160.00
2022-08-03T09:44:24.894Z,69120.00
2022-08-03T09:45:13.610Z,70272.00
2022-08-03T09:46:13.598Z,74816.00
2022-08-03T09:47:13.582Z,75616.00
2022-08-03T09:48:13.571Z,78048.00
2022-08-03T09:49:13.652Z,79648.00
2022-08-03T09:50:13.645Z,77184.00
2022-08-03T09:51:33.103Z,73184.00
2022-08-03T09:52:32.782Z,75232.00
2022-08-03T09:53:13.513Z,72672.00
2022-08-03T09:54:20.313Z,71200.00
2022-08-03T09:56:33.541Z,69728.00
2022-08-03T09:56:34.031Z,72608.00
2022-08-03T09:57:14.537Z,71968.00
2022-08-03T09:58:13.474Z,75904.00
2022-08-03T09:59:13.475Z,78560.00
2022-08-03T10:00:13.546Z,81024.00
2022-08-03T10:01:23.612Z,79584.00
2022-08-03T10:02:14.442Z,80160.00
2022-08-03T10:03:13.409Z,81088.00
2022-08-03T10:04:13.400Z,85344.00
2022-08-03T10:05:19.590Z,85792.00
2022-08-03T10:06:13.383Z,88416.00
2022-08-03T10:07:13.486Z,81984.00
2022-08-03T10:08:13.356Z,80000.00
2022-08-03T10:09:13.343Z,82880.00
2022-08-03T10:10:29.897Z,85248.00
2022-08-03T10:11:14.346Z,87520.00
2022-08-03T10:12:13.322Z,87872.00
2022-08-03T10:13:13.307Z,84288.00
2022-08-03T10:14:13.312Z,84224.00
2022-08-03T10:16:22.022Z,81184.00
2022-08-03T10:16:23.606Z,84256.00
2022-08-03T10:17:13.368Z,88480.00
2022-08-03T10:18:13.281Z,86976.00
2022-08-03T10:19:13.246Z,93344.00
2022-08-03T10:20:13.241Z,93728.00
2022-08-03T10:21:13.259Z,90016.00
2022-08-03T10:22:13.239Z,89984.00
2022-08-03T10:23:13.215Z,90240.00
2022-08-03T10:24:13.205Z,88928.00
2022-08-03T10:25:13.619Z,88224.00
2022-08-03T10:26:13.190Z,88096.00
2022-08-03T10:27:13.230Z,93920.00
2022-08-03T10:28:13.162Z,96224.00
2022-08-03T10:29:13.159Z,97664.00
2022-08-03T10:30:13.143Z,99776.00
2022-08-03T10:31:13.185Z,98912.00
2022-08-03T10:32:13.130Z,96352.00
2022-08-03T10:33:50.906Z,94144.00
2022-08-03T10:34:13.109Z,88736.00
2022-08-03T10:35:20.269Z,94912.00
2022-08-03T10:36:13.085Z,86944.00
2022-08-03T10:37:13.158Z,86656.00
2022-08-03T10:38:13.084Z,93216.00
2022-08-03T10:39:16.103Z,89696.00
2022-08-03T10:40:16.141Z,88448.00
2022-08-03T10:41:14.088Z,90880.00
2022-08-03T10:42:14.724Z,91040.00
2022-08-03T10:43:13.013Z,87936.00
2022-08-03T10:44:13.002Z,89696.00
2022-08-03T10:45:12.990Z,88000.00
2022-08-03T10:46:12.983Z,86720.00
2022-08-03T10:47:13.032Z,89856.00
2022-08-03T10:48:12.971Z,91040.00
2022-08-03T10:49:13.009Z,91040.00
2022-08-03T10:50:12.947Z,95328.00
2022-08-03T10:51:12.952Z,97056.00
2022-08-03T10:52:33.635Z,98208.00
2022-08-03T10:53:14.683Z,97792.00
2022-08-03T10:54:12.924Z,99552.00
2022-08-03T10:55:12.908Z,95360.00
2022-08-03T10:56:12.891Z,96064.00
2022-08-03T10:57:14.308Z,80800.00
2022-08-03T10:58:12.902Z,77984.00
2022-08-03T10:59:14.595Z,77856.00
2022-08-03T11:00:12.857Z,70976.00
2022-08-03T11:01:12.972Z,78720.00
2022-08-03T11:02:12.841Z,87808.00
2022-08-03T11:03:12.825Z,93536.00
2022-08-03T11:04:16.678Z,96320.00
2022-08-03T11:05:12.798Z,100288.00
2022-08-03T11:06:12.786Z,92640.00
2022-08-03T11:07:12.876Z,91648.00
2022-08-03T11:08:12.776Z,99136.00
2022-08-03T11:09:12.774Z,88416.00
2022-08-03T11:10:12.748Z,90144.00
2022-08-03T11:11:12.745Z,95328.00
2022-08-03T11:12:12.726Z,88832.00
2022-08-03T11:13:12.707Z,89888.00
2022-08-03T11:14:12.706Z,89952.00
2022-08-03T11:15:12.690Z,89536.00
2022-08-03T11:16:18.288Z,89536.00
2022-08-03T11:17:14.536Z,91360.00
2022-08-03T11:18:12.668Z,87520.00
2022-08-03T11:19:12.652Z,80992.00
2022-08-03T11:20:12.647Z,73376.00
2022-08-03T11:21:12.636Z,56192.00
2022-08-03T11:22:12.636Z,37344.00
2022-08-03T11:23:12.620Z,22944.00
2022-08-03T11:24:12.603Z,15840.00
2022-08-03T11:25:53.222Z,13504.00
2022-08-03T11:26:13.624Z,12116.00
2022-08-03T11:27:12.592Z,11272.00
2022-08-03T11:28:12.567Z,10644.00
2022-08-03T11:29:12.554Z,10408.00
2022-08-03T11:30:12.583Z,10476.00
2022-08-03T11:31:22.462Z,11088.00
2022-08-03T11:32:15.511Z,12392.00
2022-08-03T11:33:12.518Z,15040.00
2022-08-03T11:34:12.534Z,27136.00
2022-08-03T11:35:12.503Z,40768.00
2022-08-03T11:36:12.514Z,54688.00
2022-08-03T11:37:12.556Z,65440.00
2022-08-03T11:38:12.487Z,76352.00
2022-08-03T11:39:12.467Z,81888.00
2022-08-03T11:40:12.455Z,78176.00
2022-08-03T11:41:12.454Z,66112.00
2022-08-03T11:42:12.434Z,27136.00
2022-08-03T11:43:12.428Z,10488.00
2022-08-03T11:44:12.425Z,8620.00
2022-08-03T11:45:12.614Z,7888.00
2022-08-03T11:46:12.396Z,7468.00
2022-08-03T11:47:12.396Z,7280.00
2022-08-03T11:48:12.384Z,7308.00
2022-08-03T11:49:12.418Z,7532.00
2022-08-03T11:50:12.361Z,8164.00
2022-08-03T11:51:12.349Z,12496.00
2022-08-03T11:52:12.333Z,43968.00
2022-08-03T11:53:12.321Z,42304.00
2022-08-03T11:54:12.319Z,12316.00
2022-08-03T11:55:12.297Z,7208.00
2022-08-03T11:56:12.665Z,7160.00
2022-08-03T11:57:12.383Z,7996.00
2022-08-03T11:58:57.762Z,8652.00
2022-08-03T11:59:19.952Z,8708.00
2022-08-03T12:00:13.296Z,8452.00
2022-08-03T12:01:12.272Z,8220.00
2022-08-03T12:02:12.245Z,7980.00
2022-08-03T12:03:12.351Z,7848.00
2022-08-03T12:04:12.217Z,7820.00
2022-08-03T12:05:12.211Z,7724.00
2022-08-03T12:06:12.202Z,7720.00
2022-08-03T12:07:12.182Z,7664.00
2022-08-03T12:08:12.180Z,7524.00
2022-08-03T12:09:12.158Z,7260.00
2022-08-03T12:10:12.152Z,7080.00
2022-08-03T12:11:12.137Z,7004.00
2022-08-03T12:12:12.134Z,6960.00
2022-08-03T12:14:44.982Z,6932.00
2022-08-03T12:14:48.788Z,6956.00
2022-08-03T12:15:13.159Z,7080.00
2022-08-03T12:16:12.096Z,7384.00
2022-08-03T12:17:12.147Z,8312.00
2022-08-03T12:18:12.079Z,10416.00
2022-08-03T12:19:12.078Z,23744.00
2022-08-03T12:20:12.074Z,45600.00
2022-08-03T12:21:12.052Z,54336.00